createdAt,value
2019-05-13T00:00:53.861Z,5.93
2019-05-13T00:03:23.974Z,6.60
2019-05-13T00:05:53.757Z,6.57
2019-05-13T00:08:24.917Z,6.87
2019-05-13T00:10:54.531Z,5.80
2019-05-13T00:13:23.873Z,5.80
2019-05-13T00:15:54.383Z,4.73
2019-05-13T00:18:23.883Z,6.83
2019-05-13T00:20:54.254Z,6.57
2019-05-13T00:23:23.641Z,6.47
2019-05-13T00:25:54.519Z,6.43
2019-05-13T00:28:23.864Z,5.20
2019-05-13T00:30:54.267Z,6.17
2019-05-13T00:33:24.364Z,7.07
2019-05-13T00:35:53.865Z,5.27
2019-05-13T00:38:24.632Z,4.73
2019-05-13T00:40:54.570Z,5.33
2019-05-13T00:43:24.497Z,5.90
2019-05-13T00:45:53.875Z,6.57
2019-05-13T00:48:23.744Z,4.70
2019-05-13T00:50:54.512Z,6.33
2019-05-13T00:53:24.024Z,5.63
2019-05-13T00:55:53.589Z,5.90
2019-05-13T00:58:24.236Z,7.50
2019-05-13T01:00:54.584Z,4.23
2019-05-13T01:03:25.338Z,4.07
2019-05-13T01:05:54.944Z,4.63
2019-05-13T01:08:24.878Z,5.47
2019-05-13T01:10:54.116Z,4.87
2019-05-13T01:13:23.717Z,4.23
2019-05-13T01:15:54.370Z,5.37
2019-05-13T01:18:24.036Z,5.00
2019-05-13T01:20:53.842Z,4.13
2019-05-13T01:23:24.070Z,2.87
2019-05-13T01:25:54.433Z,3.03
2019-05-13T01:28:24.549Z,4.07
2019-05-13T01:30:54.053Z,4.03
2019-05-13T01:33:23.686Z,4.57
2019-05-13T01:35:53.764Z,3.83
2019-05-13T01:38:24.131Z,3.47
2019-05-13T01:40:54.063Z,3.17
2019-05-13T01:43:24.488Z,3.20
2019-05-13T01:45:53.953Z,2.40
2019-05-13T01:48:24.095Z,3.50
2019-05-13T01:50:53.918Z,4.67
2019-05-13T01:53:24.450Z,4.57
2019-05-13T01:55:53.848Z,2.97
2019-05-13T01:58:23.719Z,4.37
2019-05-13T02:00:55.272Z,3.60
2019-05-13T02:03:24.592Z,4.63
2019-05-13T02:05:54.520Z,4.80
2019-05-13T02:08:24.502Z,3.00
2019-05-13T02:10:55.265Z,2.40
2019-05-13T02:13:25.165Z,2.03
2019-05-13T02:15:55.744Z,3.67
2019-05-13T02:18:25.211Z,2.23
2019-05-13T02:20:56.084Z,3.13
2019-05-13T02:23:25.566Z,4.77
2019-05-13T02:25:54.817Z,2.30
2019-05-13T02:28:24.991Z,4.37
2019-05-13T02:30:56.539Z,3.73
2019-05-13T02:33:25.830Z,2.43
2019-05-13T02:35:55.098Z,3.77
2019-05-13T02:38:29.851Z,3.77
2019-05-13T02:40:55.311Z,4.83
2019-05-13T02:43:24.538Z,3.20
2019-05-13T02:45:54.463Z,4.37
2019-05-13T02:48:24.287Z,4.23
2019-05-13T02:50:54.594Z,3.00
2019-05-13T02:53:24.646Z,3.43
2019-05-13T02:55:54.282Z,4.27
2019-05-13T02:58:24.721Z,4.13
2019-05-13T03:00:54.631Z,3.67
2019-05-13T03:03:24.054Z,3.37
2019-05-13T03:05:53.986Z,3.63
2019-05-13T03:08:46.449Z,3.60
2019-05-13T03:10:54.398Z,3.93
2019-05-13T03:13:24.207Z,3.27
2019-05-13T03:16:02.762Z,3.00
2019-05-13T03:18:33.419Z,4.93
2019-05-13T03:21:03.412Z,3.10
2019-05-13T03:23:33.263Z,3.70
2019-05-13T03:26:02.976Z,3.10
2019-05-13T03:28:33.949Z,3.57
2019-05-13T03:31:06.642Z,3.03
2019-05-13T03:33:36.674Z,4.77
2019-05-13T03:36:07.690Z,4.23
2019-05-13T03:38:58.765Z,4.80
2019-05-13T03:41:12.164Z,4.27
2019-05-13T03:43:43.069Z,3.60
2019-05-13T03:46:13.707Z,4.47
2019-05-13T03:48:43.277Z,6.47
2019-05-13T03:51:13.717Z,6.47
2019-05-13T03:53:43.889Z,6.83
2019-05-13T03:56:13.450Z,5.20
2019-05-13T03:58:43.666Z,6.03
2019-05-13T04:01:13.737Z,6.37
2019-05-13T04:03:44.294Z,4.47
2019-05-13T04:06:14.489Z,7.20
2019-05-13T04:08:44.221Z,5.03
2019-05-13T04:11:14.711Z,5.80
2019-05-13T04:13:43.931Z,5.37
2019-05-13T04:16:13.442Z,5.40
2019-05-13T04:18:43.285Z,6.77
2019-05-13T04:21:13.410Z,5.33
2019-05-13T04:23:43.321Z,5.03
2019-05-13T04:26:14.832Z,3.10
2019-05-13T04:28:44.150Z,9.40
2019-05-13T04:31:14.518Z,7.10
2019-05-13T04:33:44.135Z,5.47
2019-05-13T04:36:13.978Z,7.90
2019-05-13T04:38:44.564Z,9.70
2019-05-13T04:41:14.734Z,11.47
2019-05-13T04:43:44.434Z,5.97
2019-05-13T04:46:14.642Z,11.67
2019-05-13T04:48:44.673Z,11.53
2019-05-13T04:51:14.661Z,9.27
2019-05-13T04:53:44.181Z,9.10
2019-05-13T04:56:14.086Z,9.50
2019-05-13T04:58:43.871Z,9.70
2019-05-13T05:01:51.734Z,8.23
2019-05-13T05:04:47.924Z,10.13
2019-05-13T05:11:14.448Z,9.67
2019-05-13T05:14:05.807Z,12.73
2019-05-13T05:17:04.690Z,8.27
2019-05-13T05:20:12.514Z,10.17
2019-05-13T05:23:15.809Z,10.53
2019-05-13T05:26:22.101Z,12.60
2019-05-13T05:29:12.854Z,7.53
2019-05-13T05:31:52.629Z,12.93
2019-05-13T05:35:07.712Z,8.37
2019-05-13T05:38:25.700Z,9.23
2019-05-13T05:40:53.933Z,7.77
2019-05-13T05:43:25.445Z,5.80
2019-05-13T05:45:54.807Z,6.40
2019-05-13T05:48:25.866Z,7.37
2019-05-13T05:50:56.599Z,6.43
2019-05-13T05:53:26.319Z,12.17
2019-05-13T05:55:59.490Z,10.23
2019-05-13T05:58:31.536Z,7.63
2019-05-13T06:01:03.223Z,7.40
2019-05-13T06:03:35.273Z,6.83
2019-05-13T06:06:04.697Z,7.93
2019-05-13T06:08:34.098Z,6.07
2019-05-13T06:11:04.311Z,8.83
2019-05-13T06:13:33.628Z,9.53
2019-05-13T06:16:02.957Z,7.00
2019-05-13T06:18:32.719Z,6.47
2019-05-13T06:21:02.009Z,5.90
2019-05-13T06:23:31.407Z,7.80
2019-05-13T06:26:01.857Z,8.90
2019-05-13T06:28:32.216Z,6.47
2019-05-13T06:31:02.501Z,6.57
2019-05-13T06:33:32.100Z,5.83
2019-05-13T06:36:01.388Z,8.20
2019-05-13T06:38:31.581Z,9.53
2019-05-13T06:41:07.158Z,5.97
2019-05-13T06:43:33.236Z,9.37
2019-05-13T06:46:02.463Z,8.77
2019-05-13T06:48:32.297Z,29.00
2019-05-13T06:51:02.563Z,19.77
2019-05-13T06:53:32.277Z,16.63
2019-05-13T06:56:01.693Z,15.43
2019-05-13T06:58:32.545Z,14.83
2019-05-13T07:01:03.764Z,26.53
2019-05-13T07:03:32.742Z,20.50
2019-05-13T07:06:01.993Z,15.70
2019-05-13T07:08:31.558Z,13.90
2019-05-13T07:11:17.238Z,9.10
2019-05-13T07:13:32.333Z,10.00
2019-05-13T07:16:01.730Z,7.23
2019-05-13T07:18:32.340Z,7.30
2019-05-13T07:21:02.343Z,9.43
2019-05-13T07:23:31.997Z,19.73
2019-05-13T07:26:01.913Z,26.10
2019-05-13T07:28:32.268Z,8.00
2019-05-13T07:31:02.406Z,10.50
2019-05-13T07:33:32.282Z,49.40
2019-05-13T07:36:03.507Z,15.53
2019-05-13T07:38:33.395Z,11.33
2019-05-13T07:41:04.902Z,9.40
2019-05-13T07:43:34.141Z,9.73
2019-05-13T07:46:04.948Z,9.50
2019-05-13T07:48:34.171Z,10.93
2019-05-13T07:53:42.590Z,12.90
2019-05-13T07:56:12.632Z,18.70
2019-05-13T07:58:42.155Z,13.07
2019-05-13T08:01:12.276Z,11.37
2019-05-13T08:03:42.255Z,12.97
2019-05-13T08:06:11.646Z,10.33
2019-05-13T08:08:41.677Z,12.70
2019-05-13T08:11:12.812Z,15.23
2019-05-13T08:13:44.733Z,9.30
2019-05-13T08:16:13.367Z,12.97
2019-05-13T08:18:43.871Z,20.40
2019-05-13T08:21:13.406Z,10.47
2019-05-13T08:23:45.837Z,11.60
2019-05-13T08:26:15.086Z,11.00
2019-05-13T08:28:57.257Z,23.13
2019-05-13T08:31:15.297Z,11.73
2019-05-13T08:33:44.885Z,9.10
2019-05-13T08:36:14.196Z,15.73
2019-05-13T08:38:43.810Z,27.63
2019-05-13T08:41:19.073Z,40.90
2019-05-13T08:43:44.228Z,10.63
2019-05-13T08:46:14.035Z,13.67
2019-05-13T08:48:43.270Z,11.90
2019-05-13T08:51:12.504Z,11.40
2019-05-13T08:53:42.450Z,58.77
2019-05-13T08:56:12.276Z,14.30
2019-05-13T08:58:41.681Z,16.80
2019-05-13T09:01:12.341Z,18.47
2019-05-13T09:03:41.913Z,27.40
2019-05-13T09:06:11.716Z,14.63
2019-05-13T09:08:42.471Z,16.30
2019-05-13T09:11:12.114Z,14.10
2019-05-13T09:13:42.283Z,13.20
2019-05-13T09:16:13.390Z,17.40
2019-05-13T09:18:42.799Z,28.80
2019-05-13T09:21:12.143Z,37.60
2019-05-13T09:23:41.468Z,19.00
2019-05-13T09:26:11.854Z,16.47
2019-05-13T09:28:41.762Z,18.57
2019-05-13T09:31:12.651Z,21.00
2019-05-13T09:33:42.122Z,14.07
2019-05-13T09:36:12.554Z,12.20
2019-05-13T09:38:42.378Z,15.87
2019-05-13T09:41:12.344Z,15.60
2019-05-13T09:43:42.083Z,18.83
2019-05-13T09:46:11.967Z,28.73
2019-05-13T09:48:42.476Z,31.13
2019-05-13T09:51:12.516Z,16.63
2019-05-13T09:53:41.989Z,42.70
2019-05-13T09:56:11.911Z,15.03
2019-05-13T09:58:42.102Z,17.73
2019-05-13T10:01:12.551Z,19.80
2019-05-13T10:03:53.779Z,16.83
2019-05-13T10:06:13.094Z,17.40
2019-05-13T10:08:42.318Z,42.87
2019-05-13T10:11:12.352Z,14.67
2019-05-13T10:13:41.869Z,13.90
2019-05-13T10:16:12.468Z,17.73
2019-05-13T10:18:42.455Z,18.30
2019-05-13T10:21:11.851Z,12.97
2019-05-13T10:23:41.890Z,14.13
2019-05-13T10:26:14.113Z,15.10
2019-05-13T10:28:43.720Z,13.07
2019-05-13T10:31:12.983Z,14.90
2019-05-13T10:33:42.364Z,14.43
2019-05-13T10:36:12.142Z,16.47
2019-05-13T10:38:42.007Z,16.40
2019-05-13T10:41:11.957Z,18.07
2019-05-13T10:43:44.245Z,14.20
2019-05-13T10:46:12.921Z,17.80
2019-05-13T10:48:42.542Z,15.10
2019-05-13T10:51:13.097Z,12.10
2019-05-13T10:53:42.894Z,11.63
2019-05-13T10:56:12.449Z,11.83
2019-05-13T10:58:42.708Z,15.43
2019-05-13T11:01:12.196Z,16.03
2019-05-13T11:03:42.683Z,8.23
2019-05-13T11:06:12.301Z,15.07
2019-05-13T11:08:42.278Z,13.43
2019-05-13T11:11:13.006Z,13.90
2019-05-13T11:13:56.427Z,13.07
2019-05-13T11:16:13.596Z,20.50
2019-05-13T11:18:43.152Z,18.17
2019-05-13T11:21:13.121Z,10.20
2019-05-13T11:23:42.801Z,10.67
2019-05-13T11:26:12.907Z,14.03
2019-05-13T11:28:43.029Z,14.43
2019-05-13T11:31:12.608Z,11.67
2019-05-13T11:33:42.491Z,10.00
2019-05-13T11:36:12.863Z,9.80
2019-05-13T11:38:43.443Z,10.93
2019-05-13T11:41:12.883Z,9.60
2019-05-13T11:43:42.578Z,14.13
2019-05-13T11:46:11.757Z,16.07
2019-05-13T11:48:42.588Z,15.27
2019-05-13T11:51:13.032Z,11.17
2019-05-13T11:53:42.562Z,12.07
2019-05-13T11:56:12.210Z,20.00
2019-05-13T11:58:43.107Z,9.13
2019-05-13T12:01:12.779Z,8.83
2019-05-13T12:03:43.529Z,7.77
2019-05-13T12:06:13.160Z,9.20
2019-05-13T12:08:50.451Z,13.30
2019-05-13T12:11:14.205Z,8.33
2019-05-13T12:13:43.725Z,8.60
2019-05-13T12:16:13.209Z,8.13
2019-05-13T12:18:43.789Z,11.10
2019-05-13T12:21:13.266Z,14.20
2019-05-13T12:23:42.949Z,10.77
2019-05-13T12:26:13.067Z,8.80
2019-05-13T12:28:42.722Z,7.97
2019-05-13T12:31:12.344Z,11.93
2019-05-13T12:33:43.960Z,13.40
2019-05-13T12:36:17.862Z,8.87
2019-05-13T12:38:44.505Z,10.27
2019-05-13T12:41:13.974Z,10.80
2019-05-13T12:43:43.822Z,13.17
2019-05-13T12:46:13.081Z,11.73
2019-05-13T12:48:42.480Z,8.00
2019-05-13T12:51:13.252Z,6.53
2019-05-13T12:53:43.686Z,7.70
2019-05-13T12:56:13.048Z,12.40
2019-05-13T12:58:42.290Z,8.37
2019-05-13T13:01:12.764Z,7.60
2019-05-13T13:03:42.809Z,10.10
2019-05-13T13:06:26.994Z,11.17
2019-05-13T13:08:48.572Z,12.47
2019-05-13T13:11:14.022Z,10.63
2019-05-13T13:13:58.090Z,7.23
2019-05-13T13:16:14.835Z,13.37
2019-05-13T13:18:44.119Z,12.40
2019-05-13T13:21:14.376Z,21.77
2019-05-13T13:23:44.136Z,20.73
2019-05-13T13:26:16.029Z,18.27
2019-05-13T13:28:44.532Z,19.80
2019-05-13T13:31:13.872Z,12.07
2019-05-13T13:33:44.435Z,13.83
2019-05-13T13:36:15.474Z,13.73
2019-05-13T13:38:45.046Z,9.73
2019-05-13T13:41:22.335Z,12.13
2019-05-13T13:43:45.403Z,13.13
2019-05-13T13:46:32.709Z,12.83
2019-05-13T13:48:45.655Z,11.73
2019-05-13T13:51:14.931Z,14.67
2019-05-13T13:53:44.859Z,19.70
2019-05-13T13:56:15.041Z,17.50
2019-05-13T13:58:44.482Z,18.03
2019-05-13T14:01:19.434Z,15.87
2019-05-13T14:03:46.294Z,12.30
2019-05-13T14:07:13.488Z,13.00
2019-05-13T14:08:47.467Z,15.77
2019-05-13T14:11:16.710Z,10.77
2019-05-13T14:13:46.105Z,9.17
2019-05-13T14:16:28.498Z,14.00
2019-05-13T14:18:46.361Z,12.73
2019-05-13T14:21:15.694Z,14.27
2019-05-13T14:23:45.025Z,14.20
2019-05-13T14:26:14.448Z,12.13
2019-05-13T14:28:43.778Z,17.23
2019-05-13T14:31:13.479Z,14.77
2019-05-13T14:33:42.785Z,13.40
2019-05-13T14:36:12.413Z,11.27
2019-05-13T14:38:42.345Z,12.30
2019-05-13T14:41:12.401Z,11.67
2019-05-13T14:43:41.914Z,13.53
2019-05-13T14:46:12.595Z,15.67
2019-05-13T14:48:43.301Z,21.33
2019-05-13T14:51:12.911Z,18.20
2019-05-13T14:53:42.168Z,25.17
2019-05-13T14:56:14.201Z,62.97
2019-05-13T14:58:42.539Z,57.63
2019-05-13T15:01:19.762Z,44.90
2019-05-13T15:03:43.235Z,27.30
2019-05-13T15:06:12.520Z,28.50
2019-05-13T15:08:42.274Z,82.40
2019-05-13T15:11:12.725Z,25.43
2019-05-13T15:13:42.643Z,39.97
2019-05-13T15:16:12.296Z,67.20
2019-05-13T15:18:41.932Z,25.03
2019-05-13T15:21:12.092Z,40.77
2019-05-13T15:23:42.249Z,139.10
2019-05-13T15:26:11.887Z,101.20
2019-05-13T15:28:42.178Z,139.90
2019-05-13T15:31:11.722Z,123.30
2019-05-13T15:33:41.628Z,94.70
2019-05-13T15:36:11.935Z,105.93
2019-05-13T15:38:41.600Z,128.80
2019-05-13T15:41:15.282Z,144.23
2019-05-13T15:43:42.164Z,73.80
2019-05-13T15:46:12.556Z,88.07
2019-05-13T15:48:42.300Z,109.07
2019-05-13T15:51:11.653Z,85.40
2019-05-13T15:53:43.561Z,26.27
2019-05-13T15:56:12.523Z,61.03
2019-05-13T15:58:44.478Z,79.13
2019-05-13T16:01:13.087Z,77.10
2019-05-13T16:03:42.332Z,86.80
2019-05-13T16:06:12.315Z,60.53
2019-05-13T16:08:43.331Z,92.50
2019-05-13T16:11:12.670Z,90.77
2019-05-13T16:13:42.337Z,174.63
2019-05-13T16:16:12.231Z,129.17
2019-05-13T16:18:42.080Z,91.43
2019-05-13T16:21:12.053Z,161.17
2019-05-13T16:23:42.874Z,88.33
2019-05-13T16:26:12.411Z,73.80
2019-05-13T16:28:42.067Z,153.33
2019-05-13T16:31:11.981Z,90.40
2019-05-13T16:33:42.192Z,95.97
2019-05-13T16:36:12.743Z,129.00
2019-05-13T16:38:42.361Z,152.10
2019-05-13T16:41:12.445Z,113.00
2019-05-13T16:43:42.746Z,122.17
2019-05-13T16:46:12.855Z,108.53
2019-05-13T16:48:42.177Z,129.47
2019-05-13T16:51:12.703Z,109.27
2019-05-13T16:53:42.538Z,89.33
2019-05-13T16:56:25.630Z,38.33
2019-05-13T16:58:43.137Z,33.47
2019-05-13T17:01:12.601Z,39.40
2019-05-13T17:03:41.975Z,27.10
2019-05-13T17:06:12.750Z,39.90
2019-05-13T17:08:42.615Z,80.63
2019-05-13T17:11:12.233Z,63.67
2019-05-13T17:13:42.464Z,79.93
2019-05-13T17:16:12.754Z,60.03
2019-05-13T17:18:42.101Z,41.03
2019-05-13T17:21:11.481Z,57.47
2019-05-13T17:23:41.840Z,34.77
2019-05-13T17:26:11.720Z,29.23
2019-05-13T17:28:41.671Z,40.20
2019-05-13T17:31:11.691Z,39.90
2019-05-13T17:33:52.000Z,42.87
2019-05-13T17:36:21.780Z,30.20
2019-05-13T17:38:54.168Z,35.97
2019-05-13T17:41:28.438Z,44.33
2019-05-13T17:43:58.211Z,121.07
2019-05-13T17:46:28.026Z,36.67
2019-05-13T17:48:57.373Z,33.20
2019-05-13T17:51:26.761Z,30.70
2019-05-13T17:53:56.594Z,23.60
2019-05-13T17:56:26.003Z,32.07
2019-05-13T17:58:55.383Z,47.07
2019-05-13T18:01:25.911Z,27.90
2019-05-13T18:03:55.284Z,36.17
2019-05-13T18:06:24.659Z,50.53
2019-05-13T18:08:54.041Z,77.87
2019-05-13T18:11:23.458Z,122.07
2019-05-13T18:13:52.862Z,82.57
2019-05-13T18:16:23.078Z,100.70
2019-05-13T18:18:52.957Z,53.77
2019-05-13T18:21:22.815Z,44.80
2019-05-13T18:23:52.732Z,105.30
2019-05-13T18:26:22.031Z,97.60
2019-05-13T18:28:54.794Z,40.27
2019-05-13T18:31:24.917Z,37.37
2019-05-13T18:33:54.294Z,82.43
2019-05-13T18:36:23.546Z,103.73
2019-05-13T18:38:52.894Z,59.70
2019-05-13T18:41:22.262Z,23.63
2019-05-13T18:43:54.836Z,17.57
2019-05-13T18:46:22.918Z,34.50
2019-05-13T18:48:58.667Z,32.70
2019-05-13T18:51:23.455Z,26.57
2019-05-13T18:53:52.685Z,19.87
2019-05-13T18:56:22.016Z,40.00
2019-05-13T18:58:51.257Z,41.83
2019-05-13T19:01:21.586Z,35.20
2019-05-13T19:03:50.988Z,44.03
2019-05-13T19:06:22.196Z,26.47
2019-05-13T19:08:52.836Z,38.50
2019-05-13T19:11:22.325Z,41.07
2019-05-13T19:13:52.183Z,33.40
2019-05-13T19:16:21.712Z,24.47
2019-05-13T19:18:51.319Z,12.53
2019-05-13T19:21:21.887Z,24.57
2019-05-13T19:23:51.414Z,29.77
2019-05-13T19:26:21.771Z,14.23
2019-05-13T19:28:51.602Z,10.50
2019-05-13T19:31:22.054Z,12.03
2019-05-13T19:33:52.066Z,18.03
2019-05-13T19:36:21.453Z,12.50
2019-05-13T19:38:51.253Z,16.47
2019-05-13T19:41:22.283Z,15.40
2019-05-13T19:43:51.619Z,17.47
2019-05-13T19:46:20.974Z,28.07
2019-05-13T19:48:52.184Z,20.30
2019-05-13T19:51:21.691Z,25.47
2019-05-13T19:53:51.674Z,25.60
2019-05-13T19:56:21.401Z,25.40
2019-05-13T19:58:50.983Z,30.47
2019-05-13T20:01:21.662Z,38.50
2019-05-13T20:03:51.697Z,16.93
2019-05-13T20:06:21.448Z,23.33
2019-05-13T20:08:51.813Z,13.80
2019-05-13T20:11:21.927Z,23.10
2019-05-13T20:13:52.144Z,25.57
2019-05-13T20:16:22.165Z,25.00
2019-05-13T20:18:52.148Z,20.07
2019-05-13T20:21:21.519Z,69.60
2019-05-13T20:23:51.879Z,99.40
2019-05-13T20:26:21.823Z,129.80
2019-05-13T20:28:51.363Z,112.50
2019-05-13T20:31:21.733Z,35.10
2019-05-13T20:33:51.740Z,50.03
2019-05-13T20:36:22.156Z,47.03
2019-05-13T20:38:51.745Z,28.67
2019-05-13T20:41:22.388Z,34.93
2019-05-13T20:43:52.222Z,47.27
2019-05-13T20:46:23.227Z,38.70
2019-05-13T20:48:52.739Z,23.67
2019-05-13T20:51:22.096Z,49.80
2019-05-13T20:53:51.795Z,37.90
2019-05-13T20:56:21.821Z,37.00
2019-05-13T20:58:51.669Z,44.77
2019-05-13T21:01:21.929Z,52.13
2019-05-13T21:03:51.646Z,36.93
2019-05-13T21:06:22.126Z,29.80
2019-05-13T21:08:52.201Z,34.87
2019-05-13T21:11:21.618Z,29.43
2019-05-13T21:13:51.752Z,20.93
2019-05-13T21:16:21.891Z,31.63
2019-05-13T21:18:51.277Z,26.80
2019-05-13T21:21:22.140Z,26.27
2019-05-13T21:23:52.180Z,24.73
2019-05-13T21:26:22.585Z,22.70
2019-05-13T21:28:56.167Z,19.20
2019-05-13T21:31:25.478Z,25.70
2019-05-13T21:33:54.710Z,14.60
2019-05-13T21:36:23.971Z,39.77
2019-05-13T21:38:53.284Z,43.50
2019-05-13T21:41:22.551Z,27.60
2019-05-13T21:43:52.150Z,31.87
2019-05-13T21:46:21.581Z,48.43
2019-05-13T21:48:52.101Z,68.57
2019-05-13T21:51:22.305Z,54.23
2019-05-13T21:53:52.020Z,21.10
2019-05-13T21:56:23.226Z,24.80
2019-05-13T21:58:52.555Z,36.10
2019-05-13T22:01:24.908Z,76.93
2019-05-13T22:03:54.107Z,52.93
2019-05-13T22:06:23.360Z,165.00
2019-05-13T22:08:52.592Z,86.47
2019-05-13T22:11:22.811Z,53.80
2019-05-13T22:13:52.117Z,55.57
2019-05-13T22:16:21.604Z,20.33
2019-05-13T22:18:52.373Z,16.10
2019-05-13T22:21:21.846Z,58.63
2019-05-13T22:23:51.782Z,67.77
2019-05-13T22:26:22.251Z,57.63
2019-05-13T22:28:51.738Z,20.93
2019-05-13T22:31:22.248Z,61.83
2019-05-13T22:33:51.940Z,20.50
2019-05-13T22:36:21.416Z,18.57
2019-05-13T22:38:51.637Z,23.43
2019-05-13T22:41:22.230Z,15.87
2019-05-13T22:43:58.184Z,34.17
2019-05-13T22:46:22.605Z,33.90
2019-05-13T22:48:51.931Z,18.30
2019-05-13T22:51:21.511Z,68.07
2019-05-13T22:53:50.790Z,17.53
2019-05-13T22:56:21.868Z,47.13
2019-05-13T22:58:51.637Z,34.37
2019-05-13T23:01:21.882Z,46.10
2019-05-13T23:03:51.536Z,43.43
2019-05-13T23:06:21.602Z,31.10
2019-05-13T23:08:51.138Z,22.37
2019-05-13T23:11:21.919Z,44.30
2019-05-13T23:14:05.166Z,38.67
2019-05-13T23:16:22.653Z,62.83
2019-05-13T23:18:51.942Z,30.93
2019-05-13T23:21:21.237Z,15.70
2019-05-13T23:23:51.448Z,19.03
2019-05-13T23:26:21.114Z,25.63
2019-05-13T23:28:52.201Z,43.97
2019-05-13T23:31:21.259Z,37.30
2019-05-13T23:33:50.518Z,122.73
2019-05-13T23:36:21.160Z,71.73
2019-05-13T23:38:51.693Z,13.60
2019-05-13T23:41:21.807Z,47.00
2019-05-13T23:43:51.286Z,82.03
2019-05-13T23:46:22.231Z,270.37
2019-05-13T23:48:52.021Z,93.43
2019-05-13T23:51:21.650Z,35.60
2019-05-13T23:53:51.098Z,134.30
2019-05-13T23:56:21.799Z,95.63
2019-05-13T23:58:51.921Z,72.27
